sensor_id;sensor_type;location;lat;lon;timestamp;P1;durP1;ratioP1;P2;durP2;ratioP2
8435;SDS011;4255;48.730;9.156;2022-09-09T00:04:28;3.00;;;2.60;;
8435;SDS011;4255;48.730;9.156;2022-09-09T00:09:24;7.03;;;2.60;;
8435;SDS011;4255;48.730;9.156;2022-09-09T00:12:02;4.00;;;2.53;;
8435;SDS011;4255;48.730;9.156;2022-09-09T00:23:12;10.10;;;4.00;;
8435;SDS011;4255;48.730;9.156;2022-09-09T00:28:52;4.33;;;2.40;;
8435;SDS011;4255;48.730;9.156;2022-09-09T00:31:49;3.33;;;2.23;;
8435;SDS011;4255;48.730;9.156;2022-09-09T00:34:20;5.70;;;2.43;;
8435;SDS011;4255;48.730;9.156;2022-09-09T00:36:48;7.07;;;3.73;;
8435;SDS011;4255;48.730;9.156;2022-09-09T00:44:38;3.87;;;2.40;;
8435;SDS011;4255;48.730;9.156;2022-09-09T00:47:51;3.20;;;2.83;;
8435;SDS011;4255;48.730;9.156;2022-09-09T00:50:31;2.97;;;2.60;;
8435;SDS011;4255;48.730;9.156;2022-09-09T00:58:30;3.93;;;3.53;;
8435;SDS011;4255;48.730;9.156;2022-09-09T01:01:03;7.13;;;3.33;;
8435;SDS011;4255;48.730;9.156;2022-09-09T01:03:35;2.80;;;2.57;;
8435;SDS011;4255;48.730;9.156;2022-09-09T01:08:42;3.23;;;2.93;;
8435;SDS011;4255;48.730;9.156;2022-09-09T01:16:50;6.40;;;3.70;;
8435;SDS011;4255;48.730;9.156;2022-09-09T01:19:27;2.17;;;2.07;;
8435;SDS011;4255;48.730;9.156;2022-09-09T01:27:48;2.43;;;2.23;;
8435;SDS011;4255;48.730;9.156;2022-09-09T01:30:16;2.50;;;2.30;;
8435;SDS011;4255;48.730;9.156;2022-09-09T01:32:47;2.53;;;2.27;;
8435;SDS011;4255;48.730;9.156;2022-09-09T01:35:28;3.40;;;2.10;;
8435;SDS011;4255;48.730;9.156;2022-09-09T01:38:01;2.60;;;2.30;;
8435;SDS011;4255;48.730;9.156;2022-09-09T01:40:27;5.03;;;2.23;;
8435;SDS011;4255;48.730;9.156;2022-09-09T01:42:53;3.27;;;1.87;;
8435;SDS011;4255;48.730;9.156;2022-09-09T01:45:19;3.20;;;2.30;;
8435;SDS011;4255;48.730;9.156;2022-09-09T01:47:46;2.37;;;2.17;;
8435;SDS011;4255;48.730;9.156;2022-09-09T01:50:13;2.50;;;2.10;;
8435;SDS011;4255;48.730;9.156;2022-09-09T01:52:40;2.10;;;2.00;;
8435;SDS011;4255;48.730;9.156;2022-09-09T01:55:07;2.50;;;1.83;;
8435;SDS011;4255;48.730;9.156;2022-09-09T01:57:37;3.20;;;1.83;;
8435;SDS011;4255;48.730;9.156;2022-09-09T02:00:12;3.70;;;2.00;;
8435;SDS011;4255;48.730;9.156;2022-09-09T02:02:53;1.93;;;1.70;;
8435;SDS011;4255;48.730;9.156;2022-09-09T02:05:40;4.60;;;2.43;;
8435;SDS011;4255;48.730;9.156;2022-09-09T02:08:20;2.43;;;2.20;;
8435;SDS011;4255;48.730;9.156;2022-09-09T02:11:05;9.77;;;3.63;;
8435;SDS011;4255;48.730;9.156;2022-09-09T02:13:32;4.63;;;2.13;;
8435;SDS011;4255;48.730;9.156;2022-09-09T02:16:08;2.93;;;2.70;;
8435;SDS011;4255;48.730;9.156;2022-09-09T02:18:52;4.87;;;2.10;;
8435;SDS011;4255;48.730;9.156;2022-09-09T02:21:35;2.50;;;2.30;;
8435;SDS011;4255;48.730;9.156;2022-09-09T02:24:02;3.00;;;2.00;;
8435;SDS011;4255;48.730;9.156;2022-09-09T02:26:32;2.40;;;2.20;;
8435;SDS011;4255;48.730;9.156;2022-09-09T02:29:01;2.20;;;2.10;;
8435;SDS011;4255;48.730;9.156;2022-09-09T02:31:29;5.27;;;2.40;;
8435;SDS011;4255;48.730;9.156;2022-09-09T02:33:57;2.40;;;2.00;;
8435;SDS011;4255;48.730;9.156;2022-09-09T02:36:26;3.63;;;2.30;;
8435;SDS011;4255;48.730;9.156;2022-09-09T02:38:56;2.40;;;2.20;;
8435;SDS011;4255;48.730;9.156;2022-09-09T02:41:30;7.77;;;2.20;;
8435;SDS011;4255;48.730;9.156;2022-09-09T02:44:01;3.43;;;1.90;;
8435;SDS011;4255;48.730;9.156;2022-09-09T02:47:01;1.80;;;1.70;;
8435;SDS011;4255;48.730;9.156;2022-09-09T02:52:18;5.30;;;2.27;;
8435;SDS011;4255;48.730;9.156;2022-09-09T02:54:51;4.77;;;3.00;;
8435;SDS011;4255;48.730;9.156;2022-09-09T02:57:28;3.33;;;2.47;;
8435;SDS011;4255;48.730;9.156;2022-09-09T02:59:57;3.37;;;2.17;;
8435;SDS011;4255;48.730;9.156;2022-09-09T03:02:23;3.20;;;2.20;;
8435;SDS011;4255;48.730;9.156;2022-09-09T03:04:50;6.17;;;2.30;;
8435;SDS011;4255;48.730;9.156;2022-09-09T03:07:17;5.57;;;2.20;;
8435;SDS011;4255;48.730;9.156;2022-09-09T03:09:44;6.20;;;2.33;;
8435;SDS011;4255;48.730;9.156;2022-09-09T03:12:10;5.20;;;2.40;;
8435;SDS011;4255;48.730;9.156;2022-09-09T03:14:36;2.13;;;1.90;;
8435;SDS011;4255;48.730;9.156;2022-09-09T03:17:03;2.67;;;1.90;;
8435;SDS011;4255;48.730;9.156;2022-09-09T03:19:29;3.63;;;2.30;;
8435;SDS011;4255;48.730;9.156;2022-09-09T03:21:55;3.20;;;1.77;;
8435;SDS011;4255;48.730;9.156;2022-09-09T03:24:21;2.70;;;2.20;;
8435;SDS011;4255;48.730;9.156;2022-09-09T03:26:48;4.60;;;2.03;;
8435;SDS011;4255;48.730;9.156;2022-09-09T03:29:13;2.33;;;1.90;;
8435;SDS011;4255;48.730;9.156;2022-09-09T03:31:39;2.07;;;1.97;;
8435;SDS011;4255;48.730;9.156;2022-09-09T03:34:05;1.80;;;1.70;;
8435;SDS011;4255;48.730;9.156;2022-09-09T03:36:31;2.00;;;1.90;;
8435;SDS011;4255;48.730;9.156;2022-09-09T03:38:57;1.90;;;1.80;;
8435;SDS011;4255;48.730;9.156;2022-09-09T03:41:24;4.63;;;1.87;;
8435;SDS011;4255;48.730;9.156;2022-09-09T03:43:51;2.10;;;2.00;;
8435;SDS011;4255;48.730;9.156;2022-09-09T03:46:17;3.40;;;1.80;;
8435;SDS011;4255;48.730;9.156;2022-09-09T03:48:44;7.50;;;2.57;;
8435;SDS011;4255;48.730;9.156;2022-09-09T03:51:09;1.83;;;1.73;;
8435;SDS011;4255;48.730;9.156;2022-09-09T03:53:35;2.50;;;1.73;;
8435;SDS011;4255;48.730;9.156;2022-09-09T03:56:02;3.23;;;1.93;;
8435;SDS011;4255;48.730;9.156;2022-09-09T03:58:29;1.83;;;1.70;;
8435;SDS011;4255;48.730;9.156;2022-09-09T04:03:20;3.93;;;2.27;;
8435;SDS011;4255;48.730;9.156;2022-09-09T04:05:48;2.50;;;1.93;;
8435;SDS011;4255;48.730;9.156;2022-09-09T04:08:14;1.90;;;1.80;;
8435;SDS011;4255;48.730;9.156;2022-09-09T04:10:40;2.33;;;1.67;;
8435;SDS011;4255;48.730;9.156;2022-09-09T04:13:07;2.33;;;2.13;;
8435;SDS011;4255;48.730;9.156;2022-09-09T04:15:32;4.93;;;2.17;;
8435;SDS011;4255;48.730;9.156;2022-09-09T04:18:00;3.73;;;2.10;;
8435;SDS011;4255;48.730;9.156;2022-09-09T04:20:26;5.40;;;1.80;;
8435;SDS011;4255;48.730;9.156;2022-09-09T04:22:51;3.63;;;2.30;;
8435;SDS011;4255;48.730;9.156;2022-09-09T04:25:17;4.20;;;2.57;;
8435;SDS011;4255;48.730;9.156;2022-09-09T04:27:42;6.93;;;2.23;;
8435;SDS011;4255;48.730;9.156;2022-09-09T04:30:09;2.17;;;2.07;;
8435;SDS011;4255;48.730;9.156;2022-09-09T04:32:35;3.10;;;1.87;;
8435;SDS011;4255;48.730;9.156;2022-09-09T04:35:01;2.80;;;2.53;;
8435;SDS011;4255;48.730;9.156;2022-09-09T04:37:27;2.47;;;2.27;;
8435;SDS011;4255;48.730;9.156;2022-09-09T04:39:53;3.20;;;2.37;;
8435;SDS011;4255;48.730;9.156;2022-09-09T04:42:19;3.47;;;2.50;;
8435;SDS011;4255;48.730;9.156;2022-09-09T04:44:45;3.30;;;2.30;;
8435;SDS011;4255;48.730;9.156;2022-09-09T04:47:10;3.53;;;2.03;;
8435;SDS011;4255;48.730;9.156;2022-09-09T04:49:36;6.90;;;3.93;;
8435;SDS011;4255;48.730;9.156;2022-09-09T04:52:03;5.77;;;2.87;;
8435;SDS011;4255;48.730;9.156;2022-09-09T04:54:29;4.07;;;3.17;;
8435;SDS011;4255;48.730;9.156;2022-09-09T04:56:55;3.77;;;2.53;;
8435;SDS011;4255;48.730;9.156;2022-09-09T04:59:21;3.80;;;2.30;;
8435;SDS011;4255;48.730;9.156;2022-09-09T05:01:47;2.23;;;2.03;;
8435;SDS011;4255;48.730;9.156;2022-09-09T05:04:14;2.70;;;2.40;;
8435;SDS011;4255;48.730;9.156;2022-09-09T05:06:41;3.50;;;2.77;;
8435;SDS011;4255;48.730;9.156;2022-09-09T05:09:07;4.20;;;2.40;;
8435;SDS011;4255;48.730;9.156;2022-09-09T05:11:33;5.63;;;2.70;;
8435;SDS011;4255;48.730;9.156;2022-09-09T05:14:02;3.23;;;2.30;;
8435;SDS011;4255;48.730;9.156;2022-09-09T05:16:27;3.37;;;3.00;;
8435;SDS011;4255;48.730;9.156;2022-09-09T05:18:53;11.10;;;2.73;;
8435;SDS011;4255;48.730;9.156;2022-09-09T05:21:19;4.00;;;2.50;;
8435;SDS011;4255;48.730;9.156;2022-09-09T05:23:46;3.43;;;2.30;;
8435;SDS011;4255;48.730;9.156;2022-09-09T05:26:13;3.77;;;2.47;;
8435;SDS011;4255;48.730;9.156;2022-09-09T05:28:40;18.40;;;4.00;;
8435;SDS011;4255;48.730;9.156;2022-09-09T05:31:07;5.67;;;3.13;;
8435;SDS011;4255;48.730;9.156;2022-09-09T05:33:36;3.00;;;2.70;;
8435;SDS011;4255;48.730;9.156;2022-09-09T05:36:06;4.40;;;2.40;;
8435;SDS011;4255;48.730;9.156;2022-09-09T05:38:33;4.80;;;2.50;;
8435;SDS011;4255;48.730;9.156;2022-09-09T05:41:01;9.90;;;2.77;;
8435;SDS011;4255;48.730;9.156;2022-09-09T05:43:27;7.20;;;3.10;;
8435;SDS011;4255;48.730;9.156;2022-09-09T05:48:30;2.97;;;2.60;;
8435;SDS011;4255;48.730;9.156;2022-09-09T05:50:58;7.43;;;2.87;;
8435;SDS011;4255;48.730;9.156;2022-09-09T05:53:24;6.10;;;2.97;;
8435;SDS011;4255;48.730;9.156;2022-09-09T05:55:57;8.30;;;2.70;;
8435;SDS011;4255;48.730;9.156;2022-09-09T05:58:28;2.50;;;2.30;;
8435;SDS011;4255;48.730;9.156;2022-09-09T06:01:00;2.90;;;2.30;;
8435;SDS011;4255;48.730;9.156;2022-09-09T06:03:29;2.97;;;2.50;;
8435;SDS011;4255;48.730;9.156;2022-09-09T06:05:58;3.63;;;2.27;;
8435;SDS011;4255;48.730;9.156;2022-09-09T06:08:32;3.07;;;2.87;;
8435;SDS011;4255;48.730;9.156;2022-09-09T06:11:04;4.13;;;2.40;;
8435;SDS011;4255;48.730;9.156;2022-09-09T06:13:37;3.43;;;2.33;;
8435;SDS011;4255;48.730;9.156;2022-09-09T06:16:04;2.20;;;2.00;;
8435;SDS011;4255;48.730;9.156;2022-09-09T06:18:32;5.43;;;3.10;;
8435;SDS011;4255;48.730;9.156;2022-09-09T06:21:01;2.20;;;2.10;;
8435;SDS011;4255;48.730;9.156;2022-09-09T06:23:29;2.83;;;2.40;;
8435;SDS011;4255;48.730;9.156;2022-09-09T06:28:42;2.57;;;2.37;;
8435;SDS011;4255;48.730;9.156;2022-09-09T06:31:11;4.30;;;2.43;;
8435;SDS011;4255;48.730;9.156;2022-09-09T06:33:38;5.00;;;2.60;;
8435;SDS011;4255;48.730;9.156;2022-09-09T06:36:06;3.87;;;2.87;;
8435;SDS011;4255;48.730;9.156;2022-09-09T06:38:36;4.57;;;2.40;;
8435;SDS011;4255;48.730;9.156;2022-09-09T06:41:02;2.20;;;2.10;;
8435;SDS011;4255;48.730;9.156;2022-09-09T06:43:27;3.33;;;2.53;;
8435;SDS011;4255;48.730;9.156;2022-09-09T06:48:20;7.53;;;2.77;;
8435;SDS011;4255;48.730;9.156;2022-09-09T06:50:46;12.57;;;3.00;;
8435;SDS011;4255;48.730;9.156;2022-09-09T06:53:11;18.63;;;3.67;;
8435;SDS011;4255;48.730;9.156;2022-09-09T06:55:37;5.70;;;2.90;;
8435;SDS011;4255;48.730;9.156;2022-09-09T06:58:08;6.90;;;3.40;;
8435;SDS011;4255;48.730;9.156;2022-09-09T07:00:33;7.00;;;2.47;;
8435;SDS011;4255;48.730;9.156;2022-09-09T07:02:59;3.17;;;2.20;;
8435;SDS011;4255;48.730;9.156;2022-09-09T07:05:25;8.07;;;2.10;;
8435;SDS011;4255;48.730;9.156;2022-09-09T07:07:51;4.13;;;2.70;;
8435;SDS011;4255;48.730;9.156;2022-09-09T07:10:17;4.03;;;2.67;;
8435;SDS011;4255;48.730;9.156;2022-09-09T07:12:43;7.77;;;2.50;;
8435;SDS011;4255;48.730;9.156;2022-09-09T07:15:09;3.97;;;2.30;;
8435;SDS011;4255;48.730;9.156;2022-09-09T07:17:35;4.73;;;2.10;;
8435;SDS011;4255;48.730;9.156;2022-09-09T07:20:01;1.87;;;1.77;;
8435;SDS011;4255;48.730;9.156;2022-09-09T07:22:28;2.00;;;1.90;;
8435;SDS011;4255;48.730;9.156;2022-09-09T07:24:54;2.43;;;2.23;;
8435;SDS011;4255;48.730;9.156;2022-09-09T07:27:19;2.30;;;1.90;;
8435;SDS011;4255;48.730;9.156;2022-09-09T07:29:46;7.00;;;2.50;;
8435;SDS011;4255;48.730;9.156;2022-09-09T07:32:11;2.30;;;2.10;;
8435;SDS011;4255;48.730;9.156;2022-09-09T07:34:37;4.93;;;2.20;;
8435;SDS011;4255;48.730;9.156;2022-09-09T07:37:02;5.40;;;1.90;;
8435;SDS011;4255;48.730;9.156;2022-09-09T07:39:28;6.90;;;2.13;;
8435;SDS011;4255;48.730;9.156;2022-09-09T07:41:54;4.40;;;2.37;;
8435;SDS011;4255;48.730;9.156;2022-09-09T07:44:20;3.50;;;1.83;;
8435;SDS011;4255;48.730;9.156;2022-09-09T07:46:47;2.37;;;2.17;;
8435;SDS011;4255;48.730;9.156;2022-09-09T07:49:14;2.20;;;1.60;;
8435;SDS011;4255;48.730;9.156;2022-09-09T07:51:42;1.80;;;1.60;;
8435;SDS011;4255;48.730;9.156;2022-09-09T07:54:10;3.23;;;2.00;;
8435;SDS011;4255;48.730;9.156;2022-09-09T07:56:38;4.67;;;2.30;;
8435;SDS011;4255;48.730;9.156;2022-09-09T07:59:04;2.13;;;1.80;;
8435;SDS011;4255;48.730;9.156;2022-09-09T08:01:35;2.30;;;2.10;;
8435;SDS011;4255;48.730;9.156;2022-09-09T08:04:04;3.63;;;2.00;;
8435;SDS011;4255;48.730;9.156;2022-09-09T08:06:37;6.03;;;2.90;;
8435;SDS011;4255;48.730;9.156;2022-09-09T08:09:04;2.20;;;2.00;;
8435;SDS011;4255;48.730;9.156;2022-09-09T08:11:31;7.43;;;2.13;;
8435;SDS011;4255;48.730;9.156;2022-09-09T08:13:58;8.20;;;3.53;;
8435;SDS011;4255;48.730;9.156;2022-09-09T08:16:29;2.17;;;2.07;;
8435;SDS011;4255;48.730;9.156;2022-09-09T08:18:56;3.50;;;1.80;;
8435;SDS011;4255;48.730;9.156;2022-09-09T08:21:26;2.00;;;1.80;;
8435;SDS011;4255;48.730;9.156;2022-09-09T08:23:54;6.10;;;2.13;;
8435;SDS011;4255;48.730;9.156;2022-09-09T08:26:21;4.60;;;2.03;;
8435;SDS011;4255;48.730;9.156;2022-09-09T08:28:49;3.00;;;2.00;;
8435;SDS011;4255;48.730;9.156;2022-09-09T08:31:17;5.00;;;1.80;;
8435;SDS011;4255;48.730;9.156;2022-09-09T08:33:58;4.80;;;1.70;;
8435;SDS011;4255;48.730;9.156;2022-09-09T08:36:25;5.90;;;2.47;;
8435;SDS011;4255;48.730;9.156;2022-09-09T08:38:52;4.60;;;1.50;;
8435;SDS011;4255;48.730;9.156;2022-09-09T08:47:08;5.07;;;1.80;;
8435;SDS011;4255;48.730;9.156;2022-09-09T08:50:37;2.33;;;1.80;;
8435;SDS011;4255;48.730;9.156;2022-09-09T09:06:05;2.70;;;1.63;;
8435;SDS011;4255;48.730;9.156;2022-09-09T09:11:51;3.50;;;1.77;;
8435;SDS011;4255;48.730;9.156;2022-09-09T09:14:25;1.70;;;1.60;;
8435;SDS011;4255;48.730;9.156;2022-09-09T09:16:54;9.10;;;1.90;;
8435;SDS011;4255;48.730;9.156;2022-09-09T09:19:22;7.30;;;1.93;;
8435;SDS011;4255;48.730;9.156;2022-09-09T09:21:53;2.03;;;1.80;;
8435;SDS011;4255;48.730;9.156;2022-09-09T09:27:13;4.00;;;1.63;;
8435;SDS011;4255;48.730;9.156;2022-09-09T09:29:41;3.73;;;1.63;;
8435;SDS011;4255;48.730;9.156;2022-09-09T09:32:09;8.33;;;3.40;;
8435;SDS011;4255;48.730;9.156;2022-09-09T09:34:40;10.37;;;2.33;;
8435;SDS011;4255;48.730;9.156;2022-09-09T09:37:07;1.60;;;1.50;;
8435;SDS011;4255;48.730;9.156;2022-09-09T09:39:42;4.33;;;1.80;;
8435;SDS011;4255;48.730;9.156;2022-09-09T09:42:17;1.93;;;1.67;;
8435;SDS011;4255;48.730;9.156;2022-09-09T09:44:43;2.10;;;1.90;;
8435;SDS011;4255;48.730;9.156;2022-09-09T09:50:02;2.97;;;1.60;;
8435;SDS011;4255;48.730;9.156;2022-09-09T09:52:28;9.67;;;1.93;;
8435;SDS011;4255;48.730;9.156;2022-09-09T09:54:56;2.40;;;1.47;;
8435;SDS011;4255;48.730;9.156;2022-09-09T09:57:27;5.27;;;1.80;;
8435;SDS011;4255;48.730;9.156;2022-09-09T10:00:03;4.40;;;2.20;;
8435;SDS011;4255;48.730;9.156;2022-09-09T10:02:39;3.00;;;1.50;;
8435;SDS011;4255;48.730;9.156;2022-09-09T10:07:44;2.00;;;1.90;;
8435;SDS011;4255;48.730;9.156;2022-09-09T10:10:57;5.63;;;2.00;;
8435;SDS011;4255;48.730;9.156;2022-09-09T10:13:47;2.00;;;1.60;;
8435;SDS011;4255;48.730;9.156;2022-09-09T10:18:57;3.03;;;1.70;;
8435;SDS011;4255;48.730;9.156;2022-09-09T10:21:55;3.00;;;1.80;;
8435;SDS011;4255;48.730;9.156;2022-09-09T10:30:18;3.07;;;2.10;;
8435;SDS011;4255;48.730;9.156;2022-09-09T10:35:52;3.20;;;1.83;;
8435;SDS011;4255;48.730;9.156;2022-09-09T10:44:02;1.97;;;1.50;;
8435;SDS011;4255;48.730;9.156;2022-09-09T10:55:09;1.90;;;1.80;;
8435;SDS011;4255;48.730;9.156;2022-09-09T10:57:43;4.70;;;2.03;;
8435;SDS011;4255;48.730;9.156;2022-09-09T11:02:59;2.00;;;1.53;;
8435;SDS011;4255;48.730;9.156;2022-09-09T11:05:42;2.50;;;1.83;;
8435;SDS011;4255;48.730;9.156;2022-09-09T11:08:16;3.83;;;1.80;;
8435;SDS011;4255;48.730;9.156;2022-09-09T11:10:58;7.57;;;2.13;;
8435;SDS011;4255;48.730;9.156;2022-09-09T11:16:46;2.43;;;1.87;;
8435;SDS011;4255;48.730;9.156;2022-09-09T11:24:59;1.57;;;1.47;;
8435;SDS011;4255;48.730;9.156;2022-09-09T11:30:18;5.87;;;1.30;;
8435;SDS011;4255;48.730;9.156;2022-09-09T11:38:21;1.50;;;1.27;;
8435;SDS011;4255;48.730;9.156;2022-09-09T11:41:02;2.93;;;1.53;;
8435;SDS011;4255;48.730;9.156;2022-09-09T11:46:10;1.73;;;1.30;;
8435;SDS011;4255;48.730;9.156;2022-09-09T11:48:41;2.23;;;1.20;;
8435;SDS011;4255;48.730;9.156;2022-09-09T11:53:53;1.00;;;1.00;;
8435;SDS011;4255;48.730;9.156;2022-09-09T11:56:29;1.00;;;1.00;;
8435;SDS011;4255;48.730;9.156;2022-09-09T12:01:30;1.13;;;0.90;;
8435;SDS011;4255;48.730;9.156;2022-09-09T12:11:45;0.97;;;0.97;;
8435;SDS011;4255;48.730;9.156;2022-09-09T12:14:57;0.90;;;0.90;;
8435;SDS011;4255;48.730;9.156;2022-09-09T12:17:20;1.53;;;1.43;;
8435;SDS011;4255;48.730;9.156;2022-09-09T12:19:48;1.23;;;1.00;;
8435;SDS011;4255;48.730;9.156;2022-09-09T12:28:17;2.70;;;1.17;;
8435;SDS011;4255;48.730;9.156;2022-09-09T12:33:16;2.00;;;1.00;;
8435;SDS011;4255;48.730;9.156;2022-09-09T12:35:44;1.17;;;1.07;;
8435;SDS011;4255;48.730;9.156;2022-09-09T12:38:15;0.93;;;0.90;;
8435;SDS011;4255;48.730;9.156;2022-09-09T12:40:57;2.90;;;2.03;;
8435;SDS011;4255;48.730;9.156;2022-09-09T12:43:25;5.57;;;2.60;;
8435;SDS011;4255;48.730;9.156;2022-09-09T12:45:52;1.80;;;1.20;;
8435;SDS011;4255;48.730;9.156;2022-09-09T12:48:35;2.67;;;1.70;;
8435;SDS011;4255;48.730;9.156;2022-09-09T12:51:05;3.67;;;1.30;;
8435;SDS011;4255;48.730;9.156;2022-09-09T12:53:40;2.40;;;1.20;;
8435;SDS011;4255;48.730;9.156;2022-09-09T12:56:07;3.03;;;2.07;;
8435;SDS011;4255;48.730;9.156;2022-09-09T12:58:44;2.70;;;1.73;;
8435;SDS011;4255;48.730;9.156;2022-09-09T13:01:18;1.60;;;1.20;;
8435;SDS011;4255;48.730;9.156;2022-09-09T13:03:56;4.93;;;1.53;;
8435;SDS011;4255;48.730;9.156;2022-09-09T13:06:26;1.20;;;1.10;;
8435;SDS011;4255;48.730;9.156;2022-09-09T13:08:59;1.17;;;1.10;;
8435;SDS011;4255;48.730;9.156;2022-09-09T13:11:27;4.47;;;1.50;;
8435;SDS011;4255;48.730;9.156;2022-09-09T13:14:00;1.33;;;1.20;;
8435;SDS011;4255;48.730;9.156;2022-09-09T13:16:30;2.60;;;1.20;;
8435;SDS011;4255;48.730;9.156;2022-09-09T13:19:07;1.30;;;1.20;;
8435;SDS011;4255;48.730;9.156;2022-09-09T13:21:35;1.37;;;1.30;;
8435;SDS011;4255;48.730;9.156;2022-09-09T13:24:05;2.10;;;1.13;;
8435;SDS011;4255;48.730;9.156;2022-09-09T13:26:53;1.20;;;1.03;;
8435;SDS011;4255;48.730;9.156;2022-09-09T13:29:23;1.70;;;1.23;;
8435;SDS011;4255;48.730;9.156;2022-09-09T13:31:49;2.10;;;1.40;;
8435;SDS011;4255;48.730;9.156;2022-09-09T13:34:28;2.10;;;1.37;;
8435;SDS011;4255;48.730;9.156;2022-09-09T13:36:57;1.53;;;1.37;;
8435;SDS011;4255;48.730;9.156;2022-09-09T13:39:30;1.50;;;1.10;;
8435;SDS011;4255;48.730;9.156;2022-09-09T13:41:59;5.40;;;1.30;;
8435;SDS011;4255;48.730;9.156;2022-09-09T13:47:34;8.53;;;1.50;;
8435;SDS011;4255;48.730;9.156;2022-09-09T13:49:53;1.67;;;1.20;;
8435;SDS011;4255;48.730;9.156;2022-09-09T13:52:19;2.63;;;1.60;;
8435;SDS011;4255;48.730;9.156;2022-09-09T13:54:48;3.70;;;1.23;;
8435;SDS011;4255;48.730;9.156;2022-09-09T13:57:22;3.20;;;1.00;;
8435;SDS011;4255;48.730;9.156;2022-09-09T13:59:50;2.00;;;1.60;;
8435;SDS011;4255;48.730;9.156;2022-09-09T14:02:18;1.63;;;1.00;;
8435;SDS011;4255;48.730;9.156;2022-09-09T14:04:44;1.63;;;1.40;;
8435;SDS011;4255;48.730;9.156;2022-09-09T14:07:13;6.33;;;1.37;;
8435;SDS011;4255;48.730;9.156;2022-09-09T14:09:41;1.27;;;0.90;;
8435;SDS011;4255;48.730;9.156;2022-09-09T14:12:11;5.73;;;1.30;;
8435;SDS011;4255;48.730;9.156;2022-09-09T14:14:37;1.90;;;1.10;;
8435;SDS011;4255;48.730;9.156;2022-09-09T14:17:03;3.97;;;1.20;;
8435;SDS011;4255;48.730;9.156;2022-09-09T14:19:29;2.07;;;1.13;;
8435;SDS011;4255;48.730;9.156;2022-09-09T14:21:56;1.40;;;1.00;;
8435;SDS011;4255;48.730;9.156;2022-09-09T14:24:22;1.40;;;1.00;;
8435;SDS011;4255;48.730;9.156;2022-09-09T14:26:48;1.67;;;1.00;;
8435;SDS011;4255;48.730;9.156;2022-09-09T14:29:13;1.20;;;1.10;;
8435;SDS011;4255;48.730;9.156;2022-09-09T14:31:39;1.10;;;0.90;;
8435;SDS011;4255;48.730;9.156;2022-09-09T14:34:04;1.40;;;1.10;;
8435;SDS011;4255;48.730;9.156;2022-09-09T14:36:31;2.73;;;0.97;;
8435;SDS011;4255;48.730;9.156;2022-09-09T14:38:56;3.13;;;2.70;;
8435;SDS011;4255;48.730;9.156;2022-09-09T14:41:23;1.03;;;0.93;;
8435;SDS011;4255;48.730;9.156;2022-09-09T14:43:50;4.50;;;1.33;;
8435;SDS011;4255;48.730;9.156;2022-09-09T14:46:17;1.43;;;1.20;;
8435;SDS011;4255;48.730;9.156;2022-09-09T14:48:43;1.37;;;1.30;;
8435;SDS011;4255;48.730;9.156;2022-09-09T14:51:14;1.10;;;0.83;;
8435;SDS011;4255;48.730;9.156;2022-09-09T14:53:42;1.33;;;1.20;;
8435;SDS011;4255;48.730;9.156;2022-09-09T14:56:13;1.30;;;1.10;;
8435;SDS011;4255;48.730;9.156;2022-09-09T14:58:43;3.30;;;1.10;;
8435;SDS011;4255;48.730;9.156;2022-09-09T15:01:13;4.87;;;1.57;;
8435;SDS011;4255;48.730;9.156;2022-09-09T15:03:41;1.60;;;1.13;;
8435;SDS011;4255;48.730;9.156;2022-09-09T15:06:09;1.63;;;1.00;;
8435;SDS011;4255;48.730;9.156;2022-09-09T15:08:37;1.33;;;1.10;;
8435;SDS011;4255;48.730;9.156;2022-09-09T15:11:05;1.00;;;0.90;;
8435;SDS011;4255;48.730;9.156;2022-09-09T15:13:35;1.90;;;1.30;;
8435;SDS011;4255;48.730;9.156;2022-09-09T15:16:12;3.93;;;1.40;;
8435;SDS011;4255;48.730;9.156;2022-09-09T15:18:39;1.73;;;1.20;;
8435;SDS011;4255;48.730;9.156;2022-09-09T15:21:08;4.40;;;1.43;;
8435;SDS011;4255;48.730;9.156;2022-09-09T15:23:35;1.47;;;1.30;;
8435;SDS011;4255;48.730;9.156;2022-09-09T15:26:01;2.60;;;1.47;;
8435;SDS011;4255;48.730;9.156;2022-09-09T15:28:27;3.50;;;1.50;;
8435;SDS011;4255;48.730;9.156;2022-09-09T15:30:53;1.77;;;1.03;;
8435;SDS011;4255;48.730;9.156;2022-09-09T15:33:20;3.67;;;1.20;;
8435;SDS011;4255;48.730;9.156;2022-09-09T15:35:47;1.30;;;1.20;;
8435;SDS011;4255;48.730;9.156;2022-09-09T15:38:13;1.97;;;1.20;;
8435;SDS011;4255;48.730;9.156;2022-09-09T15:40:40;3.57;;;1.30;;
8435;SDS011;4255;48.730;9.156;2022-09-09T15:43:05;1.60;;;1.50;;
8435;SDS011;4255;48.730;9.156;2022-09-09T15:45:32;2.70;;;1.40;;
8435;SDS011;4255;48.730;9.156;2022-09-09T15:47:59;1.40;;;1.30;;
8435;SDS011;4255;48.730;9.156;2022-09-09T15:50:25;2.60;;;1.10;;
8435;SDS011;4255;48.730;9.156;2022-09-09T15:52:51;2.83;;;1.60;;
8435;SDS011;4255;48.730;9.156;2022-09-09T15:55:18;6.03;;;1.37;;
8435;SDS011;4255;48.730;9.156;2022-09-09T15:57:45;5.20;;;1.37;;
8435;SDS011;4255;48.730;9.156;2022-09-09T16:00:11;1.23;;;1.10;;
8435;SDS011;4255;48.730;9.156;2022-09-09T16:02:38;1.00;;;1.00;;
8435;SDS011;4255;48.730;9.156;2022-09-09T16:05:04;4.17;;;1.40;;
8435;SDS011;4255;48.730;9.156;2022-09-09T16:07:30;2.30;;;1.30;;
8435;SDS011;4255;48.730;9.156;2022-09-09T16:09:55;2.27;;;1.57;;
8435;SDS011;4255;48.730;9.156;2022-09-09T16:12:21;4.57;;;1.60;;
8435;SDS011;4255;48.730;9.156;2022-09-09T16:14:47;3.20;;;1.70;;
8435;SDS011;4255;48.730;9.156;2022-09-09T16:17:12;3.37;;;1.63;;
8435;SDS011;4255;48.730;9.156;2022-09-09T16:19:39;2.93;;;1.33;;
8435;SDS011;4255;48.730;9.156;2022-09-09T16:22:05;2.80;;;1.33;;
8435;SDS011;4255;48.730;9.156;2022-09-09T16:24:31;2.13;;;1.30;;
8435;SDS011;4255;48.730;9.156;2022-09-09T16:26:57;2.80;;;1.50;;
8435;SDS011;4255;48.730;9.156;2022-09-09T16:29:23;2.40;;;1.63;;
8435;SDS011;4255;48.730;9.156;2022-09-09T16:31:52;1.60;;;1.27;;
8435;SDS011;4255;48.730;9.156;2022-09-09T16:34:19;2.27;;;1.23;;
8435;SDS011;4255;48.730;9.156;2022-09-09T16:36:45;2.70;;;1.47;;
8435;SDS011;4255;48.730;9.156;2022-09-09T16:39:17;1.83;;;1.03;;
8435;SDS011;4255;48.730;9.156;2022-09-09T16:41:44;4.40;;;1.50;;
8435;SDS011;4255;48.730;9.156;2022-09-09T16:44:12;1.83;;;1.20;;
8435;SDS011;4255;48.730;9.156;2022-09-09T16:46:40;1.90;;;1.20;;
8435;SDS011;4255;48.730;9.156;2022-09-09T16:49:08;1.93;;;1.20;;
8435;SDS011;4255;48.730;9.156;2022-09-09T16:51:40;1.70;;;1.13;;
8435;SDS011;4255;48.730;9.156;2022-09-09T16:54:11;7.33;;;1.10;;
8435;SDS011;4255;48.730;9.156;2022-09-09T16:56:39;1.37;;;1.00;;
8435;SDS011;4255;48.730;9.156;2022-09-09T16:59:16;0.87;;;0.87;;
8435;SDS011;4255;48.730;9.156;2022-09-09T17:01:44;1.00;;;1.00;;
8435;SDS011;4255;48.730;9.156;2022-09-09T17:04:12;0.90;;;0.90;;
8435;SDS011;4255;48.730;9.156;2022-09-09T17:06:40;1.87;;;1.77;;
8435;SDS011;4255;48.730;9.156;2022-09-09T17:09:09;2.90;;;1.00;;
8435;SDS011;4255;48.730;9.156;2022-09-09T17:11:36;1.10;;;1.00;;
8435;SDS011;4255;48.730;9.156;2022-09-09T17:14:03;1.60;;;1.00;;
8435;SDS011;4255;48.730;9.156;2022-09-09T17:16:29;1.57;;;1.00;;
8435;SDS011;4255;48.730;9.156;2022-09-09T17:18:58;1.10;;;1.10;;
8435;SDS011;4255;48.730;9.156;2022-09-09T17:21:26;2.30;;;1.20;;
8435;SDS011;4255;48.730;9.156;2022-09-09T17:23:53;1.43;;;1.00;;
8435;SDS011;4255;48.730;9.156;2022-09-09T17:26:20;1.50;;;1.10;;
8435;SDS011;4255;48.730;9.156;2022-09-09T17:28:47;1.00;;;1.00;;
8435;SDS011;4255;48.730;9.156;2022-09-09T17:31:14;1.97;;;1.27;;
8435;SDS011;4255;48.730;9.156;2022-09-09T17:33:42;2.17;;;1.30;;
8435;SDS011;4255;48.730;9.156;2022-09-09T17:36:12;1.40;;;1.30;;
8435;SDS011;4255;48.730;9.156;2022-09-09T17:38:42;1.30;;;1.20;;
8435;SDS011;4255;48.730;9.156;2022-09-09T17:41:24;5.67;;;1.50;;
8435;SDS011;4255;48.730;9.156;2022-09-09T17:43:54;1.50;;;1.40;;
8435;SDS011;4255;48.730;9.156;2022-09-09T17:46:23;4.30;;;1.80;;
8435;SDS011;4255;48.730;9.156;2022-09-09T17:48:52;1.40;;;1.30;;
8435;SDS011;4255;48.730;9.156;2022-09-09T17:51:22;2.60;;;1.70;;
8435;SDS011;4255;48.730;9.156;2022-09-09T17:53:52;4.10;;;1.50;;
8435;SDS011;4255;48.730;9.156;2022-09-09T17:56:19;1.60;;;1.50;;
8435;SDS011;4255;48.730;9.156;2022-09-09T17:58:47;2.50;;;1.57;;
8435;SDS011;4255;48.730;9.156;2022-09-09T18:01:14;2.73;;;1.60;;
8435;SDS011;4255;48.730;9.156;2022-09-09T18:03:45;3.80;;;1.97;;
8435;SDS011;4255;48.730;9.156;2022-09-09T18:06:19;3.70;;;1.70;;
8435;SDS011;4255;48.730;9.156;2022-09-09T18:08:59;6.00;;;2.30;;